Time;durP1;ratioP1;P1;durP2;ratioP2;P2;SDS_P1;SDS_P2;PMS_P1;PMS_P2;Temp;Humidity;BMP_temperature;BMP_pressure;BME280_temperature;BME280_humidity;BME280_pressure;Samples;Min_cycle;Max_cycle;Signal;HPM_P1;HPM_P2
2022/12/10 00:00:21;;;;;;;42.38;21.95;;;1.20;22.20;;;;;;7363323;19;20083;-77
2022/12/10 00:02:51;;;;;;;38.25;21.98;;;1.10;21.90;;;;;;7372251;19;20089;-77
2022/12/10 00:05:21;;;;;;;42.28;22.75;;;1.10;21.70;;;;;;7394159;19;20043;-78
2022/12/10 00:07:51;;;;;;;42.08;23.05;;;1.10;21.40;;;;;;7372628;19;20010;-77
2022/12/10 00:10:23;;;;;;;42.70;22.00;;;1.10;21.80;;;;;;7364503;19;20010;-78
2022/12/10 00:12:53;;;;;;;40.55;22.85;;;1.20;22.00;;;;;;7372298;19;20010;-78
2022/12/10 00:15:23;;;;;;;39.78;21.70;;;1.10;21.50;;;;;;7372384;19;20009;-77
2022/12/10 00:17:53;;;;;;;37.65;21.60;;;1.10;22.00;;;;;;7372395;19;20034;-78
2022/12/10 00:20:23;;;;;;;38.65;23.30;;;1.10;21.80;;;;;;7383046;19;20006;-78
2022/12/10 00:22:52;;;;;;;40.60;22.10;;;1.10;22.00;;;;;;7371281;19;20003;-79
2022/12/10 00:25:25;;;;;;;39.92;21.58;;;1.10;21.70;;;;;;7371226;19;20011;-78
2022/12/10 00:27:55;;;;;;;39.35;22.58;;;1.10;21.70;;;;;;7372322;19;20462;-78
2022/12/10 00:30:25;;;;;;;37.55;20.88;;;1.10;21.90;;;;;;7362004;19;20003;-78
2022/12/10 00:32:54;;;;;;;38.78;22.25;;;1.10;21.90;;;;;;7371638;19;20014;-78
2022/12/10 00:35:24;;;;;;;36.97;22.00;;;1.10;21.90;;;;;;7392249;19;20007;-78
2022/12/10 00:37:54;;;;;;;36.40;21.98;;;1.00;21.80;;;;;;7371620;19;20505;-78
2022/12/10 00:40:26;;;;;;;37.67;21.75;;;1.10;21.90;;;;;;7362376;19;20022;-78
2022/12/10 00:42:56;;;;;;;39.75;21.55;;;1.10;21.90;;;;;;7370809;19;20007;-79
2022/12/10 00:45:26;;;;;;;37.10;21.02;;;1.10;21.40;;;;;;7371016;19;20029;-78
2022/12/10 00:47:56;;;;;;;41.35;23.67;;;1.10;22.00;;;;;;7371128;19;20013;-78
2022/12/10 00:50:26;;;;;;;40.35;22.33;;;1.00;22.20;;;;;;7381544;19;20048;-78
2022/12/10 00:52:56;;;;;;;35.95;22.38;;;1.00;21.90;;;;;;7369700;19;20458;-78
2022/12/10 00:55:29;;;;;;;37.53;21.85;;;1.00;22.30;;;;;;7371737;19;20107;-78
2022/12/10 00:57:58;;;;;;;41.10;22.38;;;1.10;22.50;;;;;;7371500;19;20006;-78
2022/12/10 01:00:28;;;;;;;39.78;21.50;;;1.00;22.70;;;;;;7361276;19;20109;-77
2022/12/10 01:02:58;;;;;;;38.92;21.65;;;1.00;22.60;;;;;;7370303;19;20003;-77
2022/12/10 01:05:28;;;;;;;41.83;22.23;;;1.00;22.80;;;;;;7387569;19;20014;-78
2022/12/10 01:07:58;;;;;;;41.28;22.02;;;1.00;22.90;;;;;;7371668;19;20082;-78
2022/12/10 01:10:30;;;;;;;38.83;22.05;;;1.00;23.30;;;;;;7361962;19;20015;-77
2022/12/10 01:13:00;;;;;;;39.00;21.10;;;1.00;23.30;;;;;;7369723;19;20543;-77
2022/12/10 01:15:30;;;;;;;40.08;21.90;;;1.00;23.20;;;;;;7371360;19;20006;-78
2022/12/10 01:17:59;;;;;;;36.33;21.63;;;1.00;23.50;;;;;;7371137;19;20050;-77
2022/12/10 01:20:29;;;;;;;38.08;21.73;;;1.00;23.90;;;;;;7380947;19;20081;-77
2022/12/10 01:22:59;;;;;;;39.05;21.67;;;1.00;23.90;;;;;;7369466;19;20085;-77
2022/12/10 01:25:32;;;;;;;36.47;21.65;;;1.00;23.90;;;;;;7369813;19;20018;-76
2022/12/10 01:28:02;;;;;;;42.40;21.27;;;1.00;23.90;;;;;;7370613;19;20358;-76
2022/12/10 01:30:32;;;;;;;36.08;21.92;;;1.00;23.90;;;;;;7343684;19;20038;-77
2022/12/10 01:33:02;;;;;;;38.08;21.00;;;1.00;23.70;;;;;;7369028;19;20034;-77
2022/12/10 01:35:31;;;;;;;39.60;21.75;;;1.00;23.70;;;;;;7391291;19;20019;-78
2022/12/10 01:38:01;;;;;;;39.67;21.88;;;1.00;23.70;;;;;;7369850;19;20010;-77
2022/12/10 01:40:39;;;;;;;40.33;22.50;;;1.00;23.90;;;;;;7363262;19;20027;-76
2022/12/10 01:43:15;;;;;;;34.97;21.35;;;1.00;23.90;;;;;;7368212;19;20082;-77
2022/12/10 01:45:45;;;;;;;36.88;21.73;;;1.00;23.40;;;;;;7368577;19;20483;-78
2022/12/10 01:48:15;;;;;;;37.67;21.45;;;1.00;23.50;;;;;;7369722;19;20473;-78
2022/12/10 01:50:45;;;;;;;38.88;21.27;;;1.10;22.90;;;;;;7380658;19;20432;-78
2022/12/10 01:53:16;;;;;;;41.20;22.00;;;1.00;22.50;;;;;;7390120;19;20017;-78
2022/12/10 01:55:53;;;;;;;38.58;20.83;;;1.00;22.70;;;;;;7369927;19;20350;-79
2022/12/10 01:58:22;;;;;;;38.58;21.67;;;1.00;22.70;;;;;;7368627;19;20006;-78
2022/12/10 02:01:03;;;;;;;36.03;21.55;;;1.00;22.40;;;;;;7360874;19;20003;-78
2022/12/10 02:03:45;;;;;;;37.65;21.60;;;1.00;22.50;;;;;;7367179;19;20010;-78
2022/12/10 02:06:28;;;;;;;33.38;20.05;;;1.00;21.90;;;;;;7369910;19;20010;-78
2022/12/10 02:09:07;;;;;;;38.15;21.10;;;1.00;21.90;;;;;;7365322;19;20010;-77
2022/12/10 02:11:45;;;;;;;30.38;19.08;;;1.00;22.00;;;;;;7389282;19;20925;-78
2022/12/10 02:14:21;;;;;;;34.25;20.58;;;1.00;22.50;;;;;;7367781;19;20003;-78
2022/12/10 02:16:58;;;;;;;36.95;19.77;;;1.00;22.10;;;;;;7368031;19;20034;-78
2022/12/10 02:19:42;;;;;;;40.72;21.60;;;1.00;22.20;;;;;;7358039;19;20011;-78
2022/12/10 02:22:14;;;;;;;35.70;20.67;;;1.00;22.30;;;;;;7368125;19;20017;-78
2022/12/10 02:24:44;;;;;;;36.15;21.20;;;1.00;22.40;;;;;;7366151;19;21108;-79
2022/12/10 02:27:21;;;;;;;35.53;19.35;;;1.00;22.40;;;;;;7368610;19;20006;-78
2022/12/10 02:29:56;;;;;;;34.85;20.38;;;1.00;22.00;;;;;;7358056;19;20006;-78
2022/12/10 02:32:32;;;;;;;34.55;19.45;;;0.90;21.70;;;;;;7389863;19;20034;-78
2022/12/10 02:35:06;;;;;;;37.08;21.02;;;0.90;21.60;;;;;;7365821;19;20018;-78
2022/12/10 02:37:41;;;;;;;36.40;21.45;;;0.90;21.90;;;;;;7368432;19;20014;-78
2022/12/10 02:40:14;;;;;;;;;;;0.90;21.80;;;;;;7360335;19;19999;-77
2022/12/10 02:42:47;;;;;;;37.63;21.15;;;0.90;22.10;;;;;;7367059;19;19919;-78
2022/12/10 02:45:20;;;;;;;40.78;22.08;;;0.90;22.10;;;;;;7365581;19;20010;-78
2022/12/10 02:47:51;;;;;;;32.77;19.80;;;0.90;22.60;;;;;;7368193;19;21288;-78
2022/12/10 02:50:23;;;;;;;35.80;20.13;;;0.90;22.60;;;;;;7380088;19;20484;-78
2022/12/10 02:52:53;;;;;;;37.15;21.30;;;0.90;22.40;;;;;;7366549;19;20010;-78
2022/12/10 02:55:23;;;;;;;34.03;20.73;;;0.90;22.40;;;;;;7367315;19;20462;-77
2022/12/10 02:58:05;;;;;;;37.60;19.92;;;0.90;22.10;;;;;;7367777;19;20083;-77
2022/12/10 03:00:46;;;;;;;35.15;20.48;;;0.90;22.10;;;;;;7360117;19;20010;-77
2022/12/10 03:03:30;;;;;;;33.10;18.88;;;0.80;22.10;;;;;;7366458;19;20374;-78
2022/12/10 03:06:07;;;;;;;36.80;21.10;;;0.80;22.00;;;;;;7366093;19;20019;-78
2022/12/10 03:08:42;;;;;;;34.05;20.10;;;0.80;22.30;;;;;;7386024;19;20017;-78
2022/12/10 03:11:14;;;;;;;39.45;20.65;;;0.70;23.40;;;;;;7362260;19;20006;-77
2022/12/10 03:13:55;;;;;;;34.15;20.48;;;0.70;23.50;;;;;;7365036;19;20013;-78
2022/12/10 03:16:32;;;;;;;36.05;20.73;;;0.60;23.60;;;;;;7367353;19;20355;-78
2022/12/10 03:19:07;;;;;;;37.15;21.40;;;0.50;23.60;;;;;;7363339;19;20007;-78
2022/12/10 03:21:40;;;;;;;37.85;20.42;;;0.50;24.20;;;;;;7364485;19;20014;-78
2022/12/10 03:24:12;;;;;;;41.05;21.88;;;0.40;24.70;;;;;;7365498;19;20145;-78
2022/12/10 03:26:43;;;;;;;37.75;21.10;;;0.40;25.20;;;;;;7386881;19;20025;-78
2022/12/10 03:29:17;;;;;;;37.30;22.35;;;0.40;25.70;;;;;;7359775;19;20006;-78
2022/12/10 03:31:51;;;;;;;42.00;23.17;;;0.50;25.70;;;;;;7366957;19;20013;-78
2022/12/10 03:34:21;;;;;;;39.95;21.63;;;0.60;25.60;;;;;;7365501;19;19999;-78
2022/12/10 03:36:52;;;;;;;38.33;21.38;;;0.60;24.60;;;;;;7366539;19;20014;-77
2022/12/10 03:39:22;;;;;;;38.22;22.02;;;0.60;24.10;;;;;;7358084;19;20506;-77
2022/12/10 03:41:52;;;;;;;37.90;21.75;;;0.60;24.40;;;;;;7365751;19;20090;-77
2022/12/10 03:44:30;;;;;;;39.13;23.33;;;0.60;24.60;;;;;;7387048;19;20011;-77
2022/12/10 03:47:03;;;;;;;38.70;22.55;;;0.60;23.90;;;;;;7365753;19;20021;-78
2022/12/10 03:49:33;;;;;;;37.88;22.35;;;0.50;24.20;;;;;;7356083;19;20358;-78
2022/12/10 03:52:03;;;;;;;36.95;21.60;;;0.50;24.50;;;;;;7365840;19;20009;-78
2022/12/10 03:54:33;;;;;;;36.42;21.75;;;0.50;25.20;;;;;;7364898;19;20050;-77
2022/12/10 03:57:03;;;;;;;37.17;21.92;;;0.50;26.30;;;;;;7365762;19;20015;-77
2022/12/10 03:59:32;;;;;;;37.47;21.38;;;0.50;27.50;;;;;;7376966;19;20022;-77
2022/12/10 04:02:05;;;;;;;36.53;21.45;;;0.50;28.40;;;;;;7365242;19;20021;-77
2022/12/10 04:04:35;;;;;;;42.17;22.40;;;0.50;29.60;;;;;;7364723;19;20048;-77
2022/12/10 04:07:05;;;;;;;40.13;22.00;;;0.50;30.00;;;;;;7365273;19;20005;-78
2022/12/10 04:09:35;;;;;;;40.42;21.42;;;0.50;29.80;;;;;;7356378;19;20010;-77
2022/12/10 04:12:05;;;;;;;42.00;23.15;;;0.50;30.10;;;;;;7363513;19;20011;-77
2022/12/10 04:17:20;;;;;;;42.92;22.23;;;0.50;29.40;;;;;;7365716;19;20007;-78
2022/12/10 04:19:49;;;;;;;38.35;22.77;;;0.50;29.00;;;;;;7354650;19;20509;-77
2022/12/10 04:28:00;;;;;;;46.40;24.42;;;0.50;29.10;;;;;;7362402;19;20130;-77
2022/12/10 04:30:30;;;;;;;39.72;23.70;;;0.40;29.90;;;;;;7354163;19;20013;-76
2022/12/10 04:33:02;;;;;;;44.33;23.95;;;0.40;30.00;;;;;;7363058;19;20098;-77
2022/12/10 04:35:32;;;;;;;43.90;23.38;;;0.40;30.00;;;;;;7385518;19;20485;-77
2022/12/10 04:38:02;;;;;;;46.28;23.60;;;0.40;30.00;;;;;;7364995;19;20011;-77
2022/12/10 04:40:32;;;;;;;41.70;23.48;;;0.40;30.00;;;;;;7361473;19;20070;-77
2022/12/10 04:43:01;;;;;;;43.03;23.42;;;0.40;30.10;;;;;;7371243;19;20101;-76
2022/12/10 04:45:31;;;;;;;42.53;23.45;;;0.40;30.70;;;;;;7372053;19;20006;-75
2022/12/10 04:48:04;;;;;;;41.53;23.23;;;0.40;30.80;;;;;;7372751;19;20022;-78
2022/12/10 04:50:34;;;;;;;40.88;24.35;;;0.40;31.00;;;;;;7384412;19;20384;-75
2022/12/10 04:53:03;;;;;;;40.63;22.92;;;0.40;31.00;;;;;;7370067;19;20007;-76
2022/12/10 04:55:33;;;;;;;43.17;23.80;;;0.40;31.30;;;;;;7370559;19;20010;-77
2022/12/10 04:58:03;;;;;;;45.05;24.90;;;0.40;31.50;;;;;;7371790;19;20090;-76
2022/12/10 05:00:33;;;;;;;42.30;24.02;;;0.40;31.70;;;;;;7362754;19;20015;-77
2022/12/10 05:03:05;;;;;;;46.20;24.60;;;0.40;31.20;;;;;;7369821;19;20020;-76
2022/12/10 05:05:36;;;;;;;43.50;24.38;;;0.40;30.80;;;;;;7393343;19;20003;-76
2022/12/10 05:08:06;;;;;;;41.20;23.83;;;0.30;31.40;;;;;;7370789;19;20006;-77
2022/12/10 05:10:37;;;;;;;43.85;24.27;;;0.30;31.30;;;;;;7362767;19;20010;-77
2022/12/10 05:13:07;;;;;;;44.20;24.17;;;0.40;31.50;;;;;;7370204;19;20009;-76
2022/12/10 05:15:40;;;;;;;44.00;24.13;;;0.40;31.10;;;;;;7370772;19;20010;-76
2022/12/10 05:18:13;;;;;;;43.03;24.23;;;0.30;31.00;;;;;;7371029;19;20043;-77
2022/12/10 05:20:42;;;;;;;47.00;25.38;;;0.30;31.30;;;;;;7385224;19;20022;-77
2022/12/10 05:26:01;;;;;;;44.25;24.20;;;0.30;31.20;;;;;;7369464;19;20011;-76
2022/12/10 05:28:32;;;;;;;50.03;25.17;;;0.30;30.80;;;;;;7368897;19;20500;-75
2022/12/10 05:31:02;;;;;;;40.97;23.88;;;0.30;30.80;;;;;;7364415;19;20324;-77
2022/12/10 05:33:35;;;;;;;43.47;24.50;;;0.30;30.80;;;;;;7367894;19;20038;-77
2022/12/10 05:36:06;;;;;;;47.67;25.30;;;0.30;30.90;;;;;;7370680;19;20015;-76
2022/12/10 05:38:37;;;;;;;44.42;25.17;;;0.30;31.20;;;;;;7389699;19;20098;-76
2022/12/10 05:41:08;;;;;;;48.53;24.45;;;0.40;30.90;;;;;;7363324;19;20006;-76
2022/12/10 05:43:38;;;;;;;46.97;25.55;;;0.30;31.10;;;;;;7367205;19;20007;-76
2022/12/10 05:46:10;;;;;;;53.00;24.50;;;0.40;31.40;;;;;;7369078;19;20014;-76
2022/12/10 05:48:43;;;;;;;48.42;26.60;;;0.40;30.90;;;;;;7367456;19;20011;-76
2022/12/10 05:51:14;;;;;;;50.78;24.67;;;0.40;30.70;;;;;;7364089;19;20019;-76
2022/12/10 05:53:45;;;;;;;45.45;25.50;;;0.30;30.00;;;;;;7387755;19;20389;-76
2022/12/10 05:56:18;;;;;;;43.65;23.60;;;0.30;30.60;;;;;;7369970;19;20030;-77
2022/12/10 05:58:49;;;;;;;47.53;26.23;;;0.30;31.20;;;;;;7365906;19;20017;-77
2022/12/10 06:01:22;;;;;;;43.17;24.35;;;0.30;31.20;;;;;;7363731;19;20490;-77
2022/12/10 06:03:56;;;;;;;43.38;24.38;;;0.40;31.60;;;;;;7367499;19;20489;-77
2022/12/10 06:06:28;;;;;;;43.10;24.73;;;0.30;31.10;;;;;;7368386;19;20466;-77
2022/12/10 06:08:58;;;;;;;42.65;23.42;;;0.30;30.70;;;;;;7364998;19;20018;-76
2022/12/10 06:11:31;;;;;;;46.75;24.90;;;0.30;30.70;;;;;;7384680;19;20013;-76
2022/12/10 06:14:01;;;;;;;45.58;24.42;;;0.40;31.00;;;;;;7366618;19;20006;-77
2022/12/10 06:16:31;;;;;;;45.53;24.88;;;0.30;30.10;;;;;;7368382;19;20006;-77
2022/12/10 06:19:04;;;;;;;43.60;24.45;;;0.30;30.70;;;;;;7365089;19;20006;-76
2022/12/10 06:21:34;;;;;;;41.75;23.92;;;0.30;30.80;;;;;;7362394;19;20007;-76
2022/12/10 06:24:04;;;;;;;47.85;24.75;;;0.30;30.80;;;;;;7366634;19;20021;-76
2022/12/10 06:26:33;;;;;;;44.75;23.75;;;0.30;30.40;;;;;;7388649;19;20470;-75
2022/12/10 06:29:04;;;;;;;44.63;24.15;;;0.30;31.20;;;;;;7363950;19;20015;-76
2022/12/10 06:31:34;;;;;;;46.25;24.65;;;0.30;31.20;;;;;;7362019;19;20021;-76
2022/12/10 06:34:07;;;;;;;50.85;25.83;;;0.30;30.60;;;;;;7366485;19;20014;-77
2022/12/10 06:36:36;;;;;;;44.85;24.40;;;0.30;30.70;;;;;;7368558;19;20007;-77
2022/12/10 06:39:06;;;;;;;42.05;23.98;;;0.30;30.60;;;;;;7364527;19;20004;-77
2022/12/10 06:41:36;;;;;;;47.35;25.02;;;0.30;30.50;;;;;;7383778;19;20017;-76
2022/12/10 06:44:10;;;;;;;47.35;25.05;;;0.30;30.00;;;;;;7365534;19;20003;-76
2022/12/10 06:46:39;;;;;;;43.45;23.75;;;0.30;30.00;;;;;;7367675;19;20102;-77
2022/12/10 06:49:12;;;;;;;45.30;23.73;;;0.40;30.10;;;;;;7364365;19;20093;-78
2022/12/10 06:51:42;;;;;;;45.75;23.60;;;0.40;30.10;;;;;;7363553;19;20006;-77
2022/12/10 06:54:11;;;;;;;45.22;23.70;;;0.40;30.20;;;;;;7366142;19;20018;-77
2022/12/10 06:56:41;;;;;;;42.60;23.98;;;0.40;30.00;;;;;;7388856;19;20090;-76
2022/12/10 06:59:11;;;;;;;45.15;24.67;;;0.40;30.00;;;;;;7363769;19;20458;-77
2022/12/10 07:01:41;;;;;;;44.72;23.90;;;0.40;30.00;;;;;;7360427;19;20366;-76
2022/12/10 07:04:14;;;;;;;42.58;22.75;;;0.40;29.80;;;;;;7363974;19;20007;-77
2022/12/10 07:06:44;;;;;;;42.95;23.10;;;0.40;29.50;;;;;;7367189;19;20014;-76
2022/12/10 07:09:14;;;;;;;45.20;25.23;;;0.40;29.60;;;;;;7362006;19;20014;-77
2022/12/10 07:11:43;;;;;;;45.60;23.80;;;0.40;29.50;;;;;;7384580;19;20512;-77
2022/12/10 07:14:17;;;;;;;40.58;22.65;;;0.30;29.40;;;;;;7364860;19;20434;-77
2022/12/10 07:16:47;;;;;;;41.38;22.58;;;0.40;29.30;;;;;;7366436;19;20007;-77
2022/12/10 07:19:19;;;;;;;42.50;24.17;;;0.40;29.30;;;;;;7362135;19;20066;-76
2022/12/10 07:21:51;;;;;;;43.80;24.00;;;0.40;29.50;;;;;;7363173;19;20014;-77
2022/12/10 07:24:21;;;;;;;44.20;23.63;;;0.40;29.40;;;;;;7363227;19;20010;-77
2022/12/10 07:26:52;;;;;;;42.92;23.30;;;0.40;29.00;;;;;;7366696;19;20050;-77
2022/12/10 07:29:23;;;;;;;44.75;23.38;;;0.40;29.20;;;;;;7382808;19;20090;-77
2022/12/10 07:31:54;;;;;;;45.25;24.38;;;0.40;28.90;;;;;;7364036;19;20017;-79
2022/12/10 07:34:27;;;;;;;48.13;25.83;;;0.40;28.70;;;;;;7364510;19;20014;-77
2022/12/10 07:36:57;;;;;;;41.35;24.35;;;0.40;28.70;;;;;;7366319;19;20015;-76
2022/12/10 07:39:27;;;;;;;46.53;25.05;;;0.40;28.30;;;;;;7358176;19;20529;-76
2022/12/10 07:41:57;;;;;;;46.88;24.90;;;0.40;28.10;;;;;;7364728;19;20014;-78
2022/12/10 07:44:28;;;;;;;40.60;23.52;;;0.40;28.00;;;;;;7385747;19;20010;-77
2022/12/10 07:46:58;;;;;;;45.65;23.60;;;0.40;27.80;;;;;;7366804;19;20348;-76
2022/12/10 07:49:32;;;;;;;40.70;24.05;;;0.50;27.60;;;;;;7357432;19;20125;-77
2022/12/10 07:52:01;;;;;;;42.22;24.48;;;0.50;27.10;;;;;;7365649;19;20006;-77
2022/12/10 07:54:31;;;;;;;48.58;25.85;;;0.50;27.30;;;;;;7363855;19;20011;-77
2022/12/10 07:57:01;;;;;;;40.78;22.52;;;0.50;27.40;;;;;;7366405;19;20375;-77
2022/12/10 07:59:31;;;;;;;42.72;23.25;;;0.50;27.30;;;;;;7378764;19;20014;-79
2022/12/10 08:02:01;;;;;;;45.17;24.92;;;0.60;27.00;;;;;;7364741;19;20010;-77
2022/12/10 08:04:40;;;;;;;44.92;24.67;;;0.60;26.70;;;;;;7363340;19;20010;-77
2022/12/10 08:07:10;;;;;;;40.25;22.88;;;0.60;26.00;;;;;;7364792;19;20014;-77
2022/12/10 08:09:40;;;;;;;43.55;23.92;;;0.60;25.30;;;;;;7356175;19;20469;-77
2022/12/10 08:12:10;;;;;;;44.55;24.42;;;0.60;25.30;;;;;;7364732;19;20843;-78
2022/12/10 08:14:39;;;;;;;44.08;23.98;;;0.60;25.50;;;;;;7389020;19;20529;-78
2022/12/10 08:17:09;;;;;;;43.70;24.42;;;0.60;24.50;;;;;;7371941;19;20482;-77
2022/12/10 08:19:42;;;;;;;44.25;23.98;;;0.70;24.60;;;;;;7360654;19;20015;-77
2022/12/10 08:22:11;;;;;;;45.55;23.55;;;0.70;23.70;;;;;;7371261;19;20034;-77
2022/12/10 08:24:41;;;;;;;43.58;24.48;;;0.70;23.70;;;;;;7369491;19;20202;-77
2022/12/10 08:27:11;;;;;;;42.00;22.50;;;0.70;23.80;;;;;;7372787;19;20007;-77
2022/12/10 08:29:41;;;;;;;43.70;24.52;;;0.70;23.70;;;;;;7382312;19;20044;-76
2022/12/10 08:32:11;;;;;;;46.33;26.33;;;0.70;23.60;;;;;;7372268;19;20010;-77
2022/12/10 08:34:43;;;;;;;43.53;24.02;;;0.70;23.80;;;;;;7368799;19;20458;-77
2022/12/10 08:37:13;;;;;;;44.80;24.23;;;0.80;23.70;;;;;;7372855;19;20059;-77
2022/12/10 08:39:43;;;;;;;41.42;23.23;;;0.80;22.90;;;;;;7361599;19;20018;-77
2022/12/10 08:42:13;;;;;;;44.47;23.50;;;0.90;23.30;;;;;;7372882;19;20002;-77
2022/12/10 08:44:42;;;;;;;48.05;22.08;;;0.90;23.10;;;;;;7391439;19;20021;-77
2022/12/10 08:47:12;;;;;;;40.35;21.60;;;0.90;22.50;;;;;;7372493;19;20011;-77
2022/12/10 08:49:44;;;;;;;40.95;22.52;;;1.00;21.60;;;;;;7360213;19;20100;-77
2022/12/10 08:52:14;;;;;;;40.35;23.38;;;1.00;21.30;;;;;;7370889;19;20084;-78
2022/12/10 08:54:44;;;;;;;40.00;21.10;;;0.80;20.50;;;;;;7368256;19;20038;-77
2022/12/10 08:57:14;;;;;;;38.45;22.65;;;0.90;21.10;;;;;;7371746;19;20363;-76
2022/12/10 08:59:44;;;;;;;41.42;22.77;;;0.90;20.70;;;;;;7381798;19;20474;-76
2022/12/10 09:02:14;;;;;;;43.38;22.85;;;0.90;19.90;;;;;;7371805;19;20513;-77
2022/12/10 09:04:49;;;;;;;41.67;22.50;;;1.00;20.20;;;;;;7368527;19;20026;-78
2022/12/10 09:07:18;;;;;;;40.60;23.00;;;1.00;18.80;;;;;;7370370;19;20482;-77
2022/12/10 09:09:48;;;;;;;40.53;22.77;;;1.10;18.30;;;;;;7360319;19;20194;-77
2022/12/10 09:12:18;;;;;;;40.95;22.63;;;1.20;17.20;;;;;;7371616;19;20019;-77
2022/12/10 09:14:48;;;;;;;37.47;21.17;;;1.20;17.20;;;;;;7368276;19;20469;-78
2022/12/10 09:17:18;;;;;;;39.97;21.25;;;1.10;15.10;;;;;;7390210;19;20014;-77
2022/12/10 09:19:51;;;;;;;36.78;22.50;;;1.20;16.00;;;;;;7359098;19;20010;-78
2022/12/10 09:22:20;;;;;;;43.65;21.23;;;1.10;14.70;;;;;;7369626;19;20085;-78
2022/12/10 09:24:50;;;;;;;37.15;20.00;;;1.20;14.60;;;;;;7367399;19;20078;-77
2022/12/10 09:27:20;;;;;;;37.03;21.52;;;1.10;13.20;;;;;;7369256;19;20006;-77
2022/12/10 09:29:50;;;;;;;38.00;20.05;;;1.20;13.70;;;;;;7358044;19;20377;-77
2022/12/10 09:32:20;;;;;;;37.88;20.95;;;1.10;12.80;;;;;;7391217;19;20003;-77
2022/12/10 09:34:55;;;;;;;35.55;20.45;;;1.30;13.50;;;;;;7367154;19;20011;-77
2022/12/10 09:37:25;;;;;;;34.55;20.65;;;1.30;12.50;;;;;;7368985;19;20454;-76
2022/12/10 09:39:55;;;;;;;36.83;20.13;;;1.10;11.20;;;;;;7360461;19;20485;-78
2022/12/10 09:42:36;;;;;;;35.80;19.40;;;1.20;12.50;;;;;;7370292;19;20003;-77
2022/12/10 09:45:14;;;;;;;36.13;19.33;;;1.10;11.20;;;;;;7367582;19;20075;-78
2022/12/10 09:47:49;;;;;;;34.03;19.80;;;1.20;10.10;;;;;;7390949;19;20010;-78
2022/12/10 09:50:27;;;;;;;35.42;19.98;;;1.20;10.70;;;;;;7358208;19;19999;-78
2022/12/10 09:52:57;;;;;;;36.47;19.77;;;1.20;11.00;;;;;;7368558;19;20485;-78
2022/12/10 09:55:35;;;;;;;35.38;19.23;;;1.20;10.20;;;;;;7367102;19;20043;-77
2022/12/10 09:58:07;;;;;;;35.20;19.92;;;1.30;10.50;;;;;;7367650;19;20006;-78
2022/12/10 10:00:39;;;;;;;33.70;19.77;;;1.30;10.90;;;;;;7359922;19;20011;-77
2022/12/10 10:03:14;;;;;;;33.65;20.10;;;1.40;10.80;;;;;;7367566;19;20027;-78
2022/12/10 10:05:50;;;;;;;35.53;20.00;;;1.40;10.30;;;;;;7390234;19;20108;-78
2022/12/10 10:08:30;;;;;;;30.63;18.48;;;1.40;9.20;;;;;;7367082;19;20014;-78
2022/12/10 10:11:01;;;;;;;32.33;18.58;;;1.40;8.60;;;;;;7361054;19;20454;-78
2022/12/10 10:13:37;;;;;;;36.08;19.02;;;1.40;9.20;;;;;;7365139;19;20378;-77
2022/12/10 10:16:22;;;;;;;36.83;19.45;;;1.40;7.80;;;;;;7369604;19;20049;-77
2022/12/10 10:18:57;;;;;;;33.55;20.05;;;1.40;7.10;;;;;;7363638;19;20011;-77
2022/12/10 10:21:34;;;;;;;33.83;18.48;;;1.50;9.40;;;;;;7370840;19;20021;-78
2022/12/10 10:24:05;;;;;;;33.33;19.30;;;1.70;7.40;;;;;;7372404;19;20006;-78
2022/12/10 10:26:41;;;;;;;35.50;18.80;;;1.60;7.60;;;;;;7392745;19;20007;-78
2022/12/10 10:29:15;;;;;;;34.30;19.05;;;1.70;8.20;;;;;;7370175;19;20082;-78
2022/12/10 10:31:45;;;;;;;34.72;19.02;;;1.60;9.70;;;;;;7370627;19;20010;-78
2022/12/10 10:34:19;;;;;;;34.20;19.45;;;1.50;9.10;;;;;;7371198;19;20014;-78
2022/12/10 10:36:59;;;;;;;34.78;19.30;;;1.60;10.20;;;;;;7370731;19;20474;-77
2022/12/10 10:39:31;;;;;;;31.45;18.65;;;1.60;9.40;;;;;;7369887;19;20079;-78
2022/12/10 10:42:09;;;;;;;34.05;19.33;;;1.70;8.70;;;;;;7371467;19;20017;-79
2022/12/10 10:44:41;;;;;;;33.05;18.33;;;1.80;7.60;;;;;;7393572;19;20034;-78
2022/12/10 10:47:27;;;;;;;34.13;19.27;;;1.60;8.20;;;;;;7371622;19;20014;-79
2022/12/10 10:50:03;;;;;;;32.03;18.27;;;1.70;8.10;;;;;;7368684;19;20356;-79
2022/12/10 10:52:40;;;;;;;32.75;19.30;;;1.60;7.70;;;;;;7369992;19;20032;-78
2022/12/10 10:55:34;;;;;;;33.13;19.48;;;1.60;8.40;;;;;;7371021;19;20462;-78
2022/12/10 10:58:04;;;;;;;36.50;20.33;;;1.60;7.70;;;;;;7370677;19;20017;-78
2022/12/10 11:00:34;;;;;;;32.85;19.27;;;1.70;8.70;;;;;;7369368;19;20040;-78
2022/12/10 11:03:09;;;;;;;34.22;19.60;;;1.80;8.30;;;;;;7370568;19;20015;-78
2022/12/10 11:05:39;;;;;;;33.90;18.85;;;1.80;7.00;;;;;;7391969;19;20019;-78
2022/12/10 11:08:23;;;;;;;31.58;18.95;;;1.80;5.80;;;;;;7370785;19;20006;-78
2022/12/10 11:11:00;;;;;;;34.60;19.00;;;1.90;7.50;;;;;;7367926;19;20471;-78
2022/12/10 11:13:32;;;;;;;32.95;18.58;;;2.00;7.10;;;;;;7369495;19;20022;-77
2022/12/10 11:16:11;;;;;;;35.17;19.92;;;1.90;7.00;;;;;;7370921;19;20030;-77
2022/12/10 11:18:43;;;;;;;34.15;18.88;;;1.90;6.40;;;;;;7368859;19;20091;-78
2022/12/10 11:21:21;;;;;;;33.67;18.27;;;1.80;6.50;;;;;;7370686;19;20472;-78
2022/12/10 11:23:56;;;;;;;32.40;18.73;;;2.00;7.00;;;;;;7369065;19;20018;-79
2022/12/10 11:26:40;;;;;;;;;;;2.00;7.10;;;;;;7390804;19;20017;-79
2022/12/10 11:29:41;;;;;;;31.77;17.40;;;1.90;5.10;;;;;;7368561;19;20359;-78
2022/12/10 11:32:26;;;;;;;31.00;17.98;;;1.90;5.80;;;;;;7369467;19;20022;-78
2022/12/10 11:35:04;;;;;;;;;;;2.00;5.80;;;;;;7370436;19;20011;-77
2022/12/10 11:37:39;;;;;;;33.97;17.55;;;2.00;6.20;;;;;;7369073;19;20380;-77
2022/12/10 11:40:37;;;;;;;31.90;18.92;;;1.90;4.00;;;;;;7369308;19;20003;-78
2022/12/10 11:43:33;;;;;;;29.95;16.15;;;1.90;5.20;;;;;;7370192;19;20002;-77
2022/12/10 11:46:16;;;;;;;31.73;16.85;;;2.00;3.40;;;;;;7368472;19;20017;-78
2022/12/10 11:48:58;;;;;;;27.73;16.02;;;1.90;2.60;;;;;;7372062;19;20003;-78
2022/12/10 11:51:37;;;;;;;31.58;17.73;;;2.00;2.00;;;;;;7382702;19;20014;-77
2022/12/10 11:54:21;;;;;;;29.75;16.48;;;1.90;1.70;;;;;;7383853;19;20859;-78
2022/12/10 11:57:01;;;;;;;30.55;16.80;;;2.00;3.40;;;;;;7383331;19;20435;-78
2022/12/10 11:59:37;;;;;;;33.92;17.42;;;2.10;2.70;;;;;;7402172;19;20450;-78
2022/12/10 12:02:48;;;;;;;30.38;18.23;;;2.10;1.70;;;;;;7382532;19;19999;-77
2022/12/10 12:05:29;;;;;;;32.05;18.10;;;2.20;1.10;;;;;;7381534;19;20010;-79
2022/12/10 12:08:08;;;;;;;29.05;16.80;;;2.20;1.00;;;;;;7382867;19;20453;-77
2022/12/10 12:10:53;;;;;;;27.65;15.88;;;2.30;1.00;;;;;;7382040;19;20034;-78
2022/12/10 12:13:29;;;;;;;30.63;16.02;;;2.30;1.00;;;;;;7382274;19;20594;-78
2022/12/10 12:16:03;;;;;;;28.58;16.15;;;2.30;1.00;;;;;;7382799;19;20017;-77
2022/12/10 12:18:42;;;;;;;29.65;16.55;;;2.20;1.00;;;;;;7380726;19;20039;-78
2022/12/10 12:21:15;;;;;;;26.52;15.80;;;2.20;1.00;;;;;;7383203;19;20011;-78
2022/12/10 12:23:51;;;;;;;30.88;16.10;;;2.20;1.00;;;;;;7403201;19;20033;-78
2022/12/10 12:26:28;;;;;;;27.90;16.38;;;2.30;1.00;;;;;;7381331;19;20010;-77
2022/12/10 12:29:10;;;;;;;27.52;15.70;;;2.40;1.00;;;;;;7380834;19;20007;-79
2022/12/10 12:31:43;;;;;;;29.63;16.20;;;2.40;1.00;;;;;;7381479;19;20479;-78
2022/12/10 12:34:18;;;;;;;27.13;16.10;;;2.30;1.00;;;;;;7382847;19;20012;-78
2022/12/10 12:36:48;;;;;;;26.98;14.18;;;2.40;1.00;;;;;;7382311;19;20480;-77
2022/12/10 12:39:27;;;;;;;27.60;16.08;;;2.30;1.00;;;;;;7381466;19;20074;-78
2022/12/10 12:42:03;;;;;;;29.13;17.65;;;2.20;1.00;;;;;;7381635;19;20481;-77
2022/12/10 12:44:47;;;;;;;29.13;15.88;;;2.00;1.00;;;;;;7403682;19;20014;-77
2022/12/10 12:47:27;;;;;;;28.73;15.80;;;2.20;1.00;;;;;;7382434;19;20007;-77
2022/12/10 12:49:59;;;;;;;27.98;16.63;;;2.20;1.00;;;;;;7379186;19;20477;-78
2022/12/10 12:52:36;;;;;;;25.67;15.75;;;2.30;1.00;;;;;;7381085;19;20010;-78
2022/12/10 12:55:16;;;;;;;30.25;17.10;;;2.40;1.00;;;;;;7381113;19;20010;-78
2022/12/10 12:57:51;;;;;;;27.17;15.27;;;2.20;1.00;;;;;;7381408;19;20038;-78
2022/12/10 13:00:25;;;;;;;28.73;15.98;;;2.20;1.00;;;;;;7376624;19;20007;-76
2022/12/10 13:03:02;;;;;;;29.50;16.77;;;2.10;1.00;;;;;;7374774;19;20010;-78
2022/12/10 13:05:35;;;;;;;26.52;15.98;;;2.20;1.00;;;;;;7396208;19;20036;-77
2022/12/10 13:08:27;;;;;;;29.83;17.27;;;2.20;1.00;;;;;;7373690;19;20011;-78
2022/12/10 13:11:01;;;;;;;31.45;16.33;;;2.20;1.00;;;;;;7373334;19;20512;-78
2022/12/10 13:13:35;;;;;;;27.40;16.30;;;2.10;1.00;;;;;;7373468;19;20031;-78
2022/12/10 13:16:35;;;;;;;28.85;17.35;;;2.10;1.00;;;;;;7373857;19;20010;-78
2022/12/10 13:19:33;;;;;;;31.60;16.17;;;2.20;1.00;;;;;;7373565;19;20015;-79
2022/12/10 13:22:10;;;;;;;30.17;16.67;;;2.10;1.00;;;;;;7373647;19;20006;-78